createdAt,value
2017-10-13T00:02:02.221Z,11.30
2017-10-13T00:04:28.444Z,11.73
2017-10-13T00:06:54.670Z,11.40
2017-10-13T00:09:20.880Z,10.60
2017-10-13T00:11:47.126Z,15.87
2017-10-13T00:14:13.383Z,11.70
2017-10-13T00:16:39.579Z,10.00
2017-10-13T00:19:05.799Z,11.60
2017-10-13T00:21:32.038Z,10.80
2017-10-13T00:23:58.264Z,10.67
2017-10-13T00:26:24.530Z,8.83
2017-10-13T00:28:50.756Z,8.80
2017-10-13T00:31:17.004Z,9.97
2017-10-13T00:33:43.233Z,8.60
2017-10-13T00:36:09.483Z,8.30
2017-10-13T00:38:35.741Z,8.43
2017-10-13T00:41:01.967Z,10.77
2017-10-13T00:43:28.180Z,12.37
2017-10-13T00:45:54.392Z,10.30
2017-10-13T00:48:20.618Z,11.33
2017-10-13T00:50:46.838Z,10.03
2017-10-13T00:53:13.056Z,11.40
2017-10-13T00:55:39.317Z,13.00
2017-10-13T00:58:05.542Z,11.00
2017-10-13T01:00:31.747Z,10.30
2017-10-13T01:02:57.995Z,12.97
2017-10-13T01:05:24.233Z,12.50
2017-10-13T01:07:50.468Z,11.10
2017-10-13T01:10:16.711Z,12.90
2017-10-13T01:12:42.934Z,12.87
2017-10-13T01:15:09.154Z,11.97
2017-10-13T01:17:35.370Z,10.60
2017-10-13T01:20:01.579Z,11.07
2017-10-13T01:22:27.803Z,12.10
2017-10-13T01:24:54.025Z,9.93
2017-10-13T01:27:20.293Z,12.10
2017-10-13T01:29:46.523Z,12.43
2017-10-13T01:32:12.759Z,14.73
2017-10-13T01:34:38.999Z,14.57
2017-10-13T01:37:05.383Z,14.30
2017-10-13T01:39:31.629Z,15.33
2017-10-13T01:41:57.849Z,14.10
2017-10-13T01:44:24.070Z,12.83
2017-10-13T01:46:50.298Z,12.17
2017-10-13T01:49:16.533Z,11.80
2017-10-13T01:51:42.813Z,11.70
2017-10-13T01:54:09.046Z,12.03
2017-10-13T01:56:35.266Z,12.50
2017-10-13T01:59:01.642Z,10.90
2017-10-13T02:01:27.876Z,11.30
2017-10-13T02:03:54.101Z,11.50
2017-10-13T02:06:20.443Z,11.07
2017-10-13T02:08:46.676Z,10.50
2017-10-13T02:11:12.901Z,11.50
2017-10-13T02:13:39.144Z,11.27
2017-10-13T02:16:05.366Z,11.10
2017-10-13T02:18:31.605Z,12.80
2017-10-13T02:20:57.852Z,10.97
2017-10-13T02:23:24.137Z,10.83
2017-10-13T02:25:50.374Z,10.93
2017-10-13T02:28:16.600Z,10.80
2017-10-13T02:30:42.841Z,11.50
2017-10-13T02:33:09.088Z,11.10
2017-10-13T02:35:35.381Z,10.90
2017-10-13T02:38:01.612Z,12.07
2017-10-13T02:40:27.838Z,11.60
2017-10-13T02:42:54.168Z,10.70
2017-10-13T02:45:20.396Z,10.27
2017-10-13T02:47:46.652Z,10.73
2017-10-13T02:50:12.869Z,11.23
2017-10-13T02:52:39.105Z,9.10
2017-10-13T02:55:05.330Z,9.27
2017-10-13T02:57:31.568Z,10.43
2017-10-13T02:59:57.846Z,10.10
2017-10-13T03:02:24.098Z,9.60
2017-10-13T03:04:50.328Z,9.17
2017-10-13T03:07:16.652Z,11.30
2017-10-13T03:09:42.885Z,10.20
2017-10-13T03:12:09.321Z,9.67
2017-10-13T03:14:35.572Z,10.40
2017-10-13T03:17:01.797Z,10.50
2017-10-13T03:19:28.033Z,10.90
2017-10-13T03:21:54.248Z,12.30
2017-10-13T03:24:20.518Z,10.23
2017-10-13T03:26:46.783Z,11.03
2017-10-13T03:29:13.031Z,10.73
2017-10-13T03:31:39.355Z,10.73
2017-10-13T03:34:05.591Z,9.57
2017-10-13T03:36:31.844Z,9.67
2017-10-13T03:38:58.124Z,10.53
2017-10-13T03:41:24.364Z,11.80
2017-10-13T03:43:50.619Z,10.70
2017-10-13T03:46:16.869Z,10.70
2017-10-13T03:48:43.146Z,11.53
2017-10-13T03:51:09.367Z,10.20
2017-10-13T03:53:35.599Z,10.90
2017-10-13T03:56:01.834Z,12.03
2017-10-13T03:58:28.068Z,12.73
2017-10-13T04:00:54.328Z,11.53
2017-10-13T04:03:20.561Z,11.50
2017-10-13T04:05:46.789Z,9.83
2017-10-13T04:08:13.023Z,11.10
2017-10-13T04:10:39.262Z,12.90
2017-10-13T04:13:05.505Z,11.20
2017-10-13T04:15:31.732Z,13.00
2017-10-13T04:17:57.963Z,13.83
2017-10-13T04:20:24.200Z,12.00
2017-10-13T04:22:50.546Z,13.90
2017-10-13T04:25:16.833Z,11.03
2017-10-13T04:27:43.076Z,10.03
2017-10-13T04:30:09.315Z,11.67
2017-10-13T04:32:35.546Z,11.60
2017-10-13T04:35:01.774Z,13.17
2017-10-13T04:37:28.017Z,10.77
2017-10-13T04:39:54.264Z,11.83
2017-10-13T04:42:20.556Z,11.97
2017-10-13T04:44:46.817Z,11.60
2017-10-13T04:47:13.059Z,11.97
2017-10-13T04:49:39.339Z,13.07
2017-10-13T04:52:05.565Z,13.87
2017-10-13T04:54:31.798Z,13.23
2017-10-13T04:56:58.031Z,12.67
2017-10-13T04:59:24.272Z,11.73
2017-10-13T05:01:50.561Z,11.87
2017-10-13T05:04:16.809Z,10.20
2017-10-13T05:06:43.041Z,9.80
2017-10-13T05:09:09.352Z,10.33
2017-10-13T05:11:35.567Z,9.90
2017-10-13T05:14:01.791Z,8.63
2017-10-13T05:16:28.000Z,8.60
2017-10-13T05:18:54.203Z,9.60
2017-10-13T05:21:20.438Z,8.60
2017-10-13T05:23:46.664Z,7.67
2017-10-13T05:26:12.884Z,8.03
2017-10-13T05:28:39.100Z,8.83
2017-10-13T05:31:05.367Z,7.33
2017-10-13T05:33:31.620Z,8.97
2017-10-13T05:35:57.889Z,9.07
2017-10-13T05:38:24.090Z,7.30
2017-10-13T05:40:50.351Z,6.63
2017-10-13T05:43:16.603Z,8.33
2017-10-13T05:45:42.850Z,9.37
2017-10-13T05:48:09.072Z,9.07
2017-10-13T05:50:35.289Z,7.97
2017-10-13T05:53:01.567Z,7.90
2017-10-13T05:55:27.787Z,8.57
2017-10-13T05:57:54.086Z,7.00
2017-10-13T06:00:20.347Z,8.10
2017-10-13T06:02:46.573Z,7.87
2017-10-13T06:05:12.949Z,7.67
2017-10-13T06:07:39.179Z,8.50
2017-10-13T06:10:05.393Z,8.20
2017-10-13T06:12:31.598Z,9.17
2017-10-13T06:14:57.895Z,9.83
2017-10-13T06:17:24.108Z,9.00
2017-10-13T06:19:50.343Z,8.87
2017-10-13T06:22:16.594Z,9.90
2017-10-13T06:24:42.862Z,8.83
2017-10-13T06:27:09.089Z,10.23
2017-10-13T06:29:35.364Z,9.50
2017-10-13T06:32:01.577Z,11.00
2017-10-13T06:34:27.791Z,8.37
2017-10-13T06:36:54.021Z,9.77
2017-10-13T06:39:20.229Z,10.50
2017-10-13T06:41:46.445Z,11.77
2017-10-13T06:44:12.697Z,12.97
2017-10-13T06:46:38.915Z,14.07
2017-10-13T06:49:05.187Z,16.40
2017-10-13T06:51:31.402Z,13.13
2017-10-13T06:53:57.613Z,12.20
2017-10-13T06:56:23.833Z,12.63
2017-10-13T06:58:50.054Z,14.20
2017-10-13T07:01:16.306Z,15.53
2017-10-13T07:03:42.521Z,14.47
2017-10-13T07:06:08.734Z,12.63
2017-10-13T07:08:35.005Z,13.30
2017-10-13T07:11:01.228Z,13.33
2017-10-13T07:13:27.476Z,14.80
2017-10-13T07:15:53.693Z,12.97
2017-10-13T07:18:19.921Z,14.40
2017-10-13T07:20:46.134Z,12.03
2017-10-13T07:23:12.366Z,13.30
2017-10-13T07:25:38.621Z,10.87
2017-10-13T07:28:04.849Z,14.07
2017-10-13T07:30:31.076Z,13.40
2017-10-13T07:32:57.310Z,15.07
2017-10-13T07:35:23.552Z,10.97
2017-10-13T07:37:49.872Z,11.80
2017-10-13T07:40:16.167Z,12.40
2017-10-13T07:42:42.400Z,8.40
2017-10-13T07:45:08.628Z,11.80
2017-10-13T07:47:34.998Z,8.93
2017-10-13T07:50:01.257Z,8.73
2017-10-13T07:52:27.469Z,7.50
2017-10-13T07:54:53.698Z,7.50
2017-10-13T07:57:20.127Z,6.20
2017-10-13T07:59:46.343Z,7.60
2017-10-13T08:02:12.607Z,5.93
2017-10-13T08:04:38.822Z,5.20
2017-10-13T08:07:05.039Z,4.57
2017-10-13T08:09:31.249Z,4.60
2017-10-13T08:11:57.467Z,4.50
2017-10-13T08:14:23.682Z,4.43
2017-10-13T08:16:49.900Z,5.83
2017-10-13T08:19:16.178Z,5.20
2017-10-13T08:21:42.394Z,5.40
2017-10-13T08:24:08.618Z,4.60
2017-10-13T08:26:34.913Z,4.80
2017-10-13T08:29:01.140Z,4.73
2017-10-13T08:31:27.379Z,5.30
2017-10-13T08:33:53.629Z,4.77
2017-10-13T08:36:19.852Z,4.80
2017-10-13T08:38:46.414Z,4.23
2017-10-13T08:41:12.715Z,5.27
2017-10-13T08:43:38.965Z,4.57
2017-10-13T08:46:05.183Z,3.73
2017-10-13T08:48:31.407Z,3.70
2017-10-13T08:50:57.663Z,3.63
2017-10-13T08:53:23.871Z,3.50
2017-10-13T08:55:50.070Z,4.10
2017-10-13T08:58:16.270Z,4.27
2017-10-13T09:00:42.491Z,3.70
2017-10-13T09:03:08.758Z,4.70
2017-10-13T09:05:35.157Z,4.27
2017-10-13T09:08:01.380Z,4.27
2017-10-13T09:10:27.605Z,3.97
2017-10-13T09:12:53.818Z,3.77
2017-10-13T09:15:20.049Z,3.20
2017-10-13T09:17:46.363Z,4.13
2017-10-13T09:20:12.600Z,3.40
2017-10-13T09:22:38.940Z,3.60
2017-10-13T09:25:05.171Z,3.60
2017-10-13T09:27:31.438Z,3.50
2017-10-13T09:29:57.647Z,3.20
2017-10-13T09:32:23.914Z,3.53
2017-10-13T09:34:50.260Z,4.10
2017-10-13T09:37:16.456Z,3.60
2017-10-13T09:39:42.686Z,3.97
2017-10-13T09:42:08.923Z,3.30
2017-10-13T09:44:35.147Z,2.90
2017-10-13T09:47:01.385Z,2.90
2017-10-13T09:49:27.611Z,2.50
2017-10-13T09:51:53.905Z,3.83
2017-10-13T09:54:20.330Z,3.13
2017-10-13T09:56:46.738Z,3.00
2017-10-13T09:59:13.033Z,3.33
2017-10-13T10:01:39.425Z,3.10
2017-10-13T10:04:05.914Z,3.43
2017-10-13T10:06:32.482Z,3.10
2017-10-13T10:08:58.918Z,3.30
2017-10-13T10:11:25.558Z,2.73
2017-10-13T10:13:51.769Z,3.20
2017-10-13T10:16:18.423Z,2.87
2017-10-13T10:18:44.859Z,3.20
2017-10-13T10:21:11.288Z,3.00
2017-10-13T10:23:37.516Z,3.37
2017-10-13T10:26:04.166Z,2.60
2017-10-13T10:28:30.798Z,2.83
2017-10-13T10:30:57.403Z,3.30
2017-10-13T10:33:23.823Z,2.80
2017-10-13T10:35:50.129Z,3.30
2017-10-13T10:38:16.731Z,2.40
2017-10-13T10:40:43.038Z,3.90
2017-10-13T10:43:09.268Z,2.83
2017-10-13T10:45:35.496Z,2.57
2017-10-13T10:48:01.729Z,3.90
2017-10-13T10:50:27.963Z,3.30
2017-10-13T10:52:54.219Z,2.80
2017-10-13T10:55:20.445Z,2.73
2017-10-13T10:57:46.643Z,2.30
2017-10-13T11:00:13.000Z,2.80
2017-10-13T11:02:39.236Z,2.73
2017-10-13T11:05:05.823Z,2.77
2017-10-13T11:07:32.043Z,1.90
2017-10-13T11:09:58.269Z,2.93
2017-10-13T11:12:24.551Z,2.50
2017-10-13T11:14:50.786Z,2.17
2017-10-13T11:17:17.113Z,2.60
2017-10-13T11:19:43.371Z,2.07
2017-10-13T11:22:09.587Z,3.00
2017-10-13T11:24:35.817Z,2.60
2017-10-13T11:27:02.034Z,3.27
2017-10-13T11:29:28.290Z,2.60
2017-10-13T11:31:54.517Z,2.97
2017-10-13T11:34:20.765Z,3.33
2017-10-13T11:36:47.038Z,2.33
2017-10-13T11:39:13.267Z,2.37
2017-10-13T11:41:39.521Z,2.43
2017-10-13T11:44:05.977Z,4.03
2017-10-13T11:46:32.569Z,2.80
2017-10-13T11:48:58.813Z,2.47
2017-10-13T11:51:25.024Z,2.10
2017-10-13T11:53:51.263Z,2.30
2017-10-13T11:56:17.563Z,2.43
2017-10-13T11:58:43.776Z,2.50
2017-10-13T12:01:10.131Z,1.80
2017-10-13T12:03:36.433Z,2.40
2017-10-13T12:06:02.688Z,2.80
2017-10-13T12:08:28.956Z,2.50
2017-10-13T12:10:55.285Z,2.33
2017-10-13T12:13:21.568Z,2.03
2017-10-13T12:15:47.789Z,2.53
2017-10-13T12:18:13.991Z,1.80
2017-10-13T12:20:40.242Z,2.20
2017-10-13T12:23:06.661Z,2.73
2017-10-13T12:25:32.889Z,2.77
2017-10-13T12:27:59.135Z,2.70
2017-10-13T12:30:25.361Z,2.53
2017-10-13T12:32:51.607Z,4.13
2017-10-13T12:35:17.867Z,2.97
2017-10-13T12:37:44.095Z,3.37
2017-10-13T12:40:10.407Z,3.70
2017-10-13T12:42:36.619Z,3.23
2017-10-13T12:45:02.911Z,3.30
2017-10-13T12:47:29.153Z,3.73
2017-10-13T12:49:55.383Z,3.23
2017-10-13T12:52:21.628Z,3.53
2017-10-13T12:54:47.846Z,3.97
2017-10-13T12:57:14.111Z,4.00
2017-10-13T12:59:40.319Z,3.80
2017-10-13T13:02:06.525Z,4.60
2017-10-13T13:04:32.817Z,3.53
2017-10-13T13:06:59.066Z,3.30
2017-10-13T13:09:25.315Z,2.20
2017-10-13T13:11:51.532Z,2.43
2017-10-13T13:14:17.931Z,2.23
2017-10-13T13:16:44.165Z,2.77
2017-10-13T13:19:10.399Z,2.03
2017-10-13T13:21:36.667Z,2.87
2017-10-13T13:24:02.871Z,2.80
2017-10-13T13:26:29.077Z,2.30
2017-10-13T13:28:55.298Z,2.50
2017-10-13T13:31:21.526Z,2.17
2017-10-13T13:33:47.779Z,2.40
2017-10-13T13:36:13.997Z,3.50
2017-10-13T13:38:40.223Z,3.70
2017-10-13T13:41:06.490Z,2.80
2017-10-13T13:43:32.723Z,2.93
2017-10-13T13:45:58.949Z,2.57
2017-10-13T13:48:25.175Z,2.77
2017-10-13T13:50:51.374Z,4.80
2017-10-13T13:53:17.614Z,2.70
2017-10-13T13:55:43.908Z,4.90
2017-10-13T13:58:10.204Z,3.47
2017-10-13T14:00:37.107Z,3.63
2017-10-13T14:03:03.482Z,3.13
2017-10-13T14:05:29.722Z,2.87
2017-10-13T14:07:55.979Z,3.30
2017-10-13T14:10:22.273Z,3.00
2017-10-13T14:12:48.499Z,2.80
2017-10-13T14:15:14.767Z,2.63
2017-10-13T14:17:41.052Z,3.30
2017-10-13T14:20:07.294Z,3.50
2017-10-13T14:22:33.540Z,3.90
2017-10-13T14:24:59.785Z,3.17
2017-10-13T14:27:26.015Z,2.87
2017-10-13T14:29:52.238Z,2.70
2017-10-13T14:32:18.531Z,2.90
2017-10-13T14:34:44.753Z,3.50
2017-10-13T14:37:11.028Z,3.50
2017-10-13T14:39:37.256Z,4.27
2017-10-13T14:42:03.459Z,3.93
2017-10-13T14:44:29.693Z,2.90
2017-10-13T14:46:55.935Z,3.40
2017-10-13T14:49:22.209Z,3.50
2017-10-13T14:51:48.509Z,4.47
2017-10-13T14:54:14.722Z,3.50
2017-10-13T14:56:40.933Z,2.80
2017-10-13T14:59:07.186Z,3.30
2017-10-13T15:01:33.436Z,4.00
2017-10-13T15:03:59.657Z,4.50
2017-10-13T15:06:25.861Z,4.57
2017-10-13T15:08:52.185Z,5.27
2017-10-13T15:11:18.403Z,5.90
2017-10-13T15:13:44.680Z,6.90
2017-10-13T15:16:11.081Z,5.90
2017-10-13T15:18:37.313Z,6.87
2017-10-13T15:21:03.629Z,6.57
2017-10-13T15:23:29.871Z,9.80
2017-10-13T15:25:56.084Z,12.80
2017-10-13T15:28:22.339Z,9.27
2017-10-13T15:30:48.576Z,7.57
2017-10-13T15:33:14.772Z,6.47
2017-10-13T15:35:41.031Z,5.57
2017-10-13T15:38:07.280Z,5.43
2017-10-13T15:40:33.658Z,5.70
2017-10-13T15:42:59.877Z,6.33
2017-10-13T15:45:26.211Z,7.23
2017-10-13T15:47:52.517Z,7.63
2017-10-13T15:50:18.776Z,9.17
2017-10-13T15:52:45.196Z,8.00
2017-10-13T15:55:11.700Z,13.17
2017-10-13T15:57:38.015Z,9.67
2017-10-13T16:00:04.461Z,11.80
2017-10-13T16:02:30.744Z,9.27
2017-10-13T16:04:57.031Z,10.57
2017-10-13T16:07:23.276Z,10.70
2017-10-13T16:09:49.493Z,10.90
2017-10-13T16:12:15.899Z,11.90
2017-10-13T16:14:42.402Z,11.90
2017-10-13T16:17:08.759Z,10.83
2017-10-13T16:19:35.090Z,8.47
2017-10-13T16:22:01.608Z,10.40
2017-10-13T16:24:27.987Z,18.63
2017-10-13T16:26:54.631Z,18.10
2017-10-13T16:29:21.043Z,12.37
2017-10-13T16:31:47.403Z,20.87
2017-10-13T16:34:13.906Z,12.83
2017-10-13T16:36:40.581Z,16.30
2017-10-13T16:39:07.059Z,11.23
2017-10-13T16:41:33.488Z,15.43
2017-10-13T16:43:59.819Z,11.27
2017-10-13T16:46:26.103Z,15.80
2017-10-13T16:48:52.461Z,20.50
2017-10-13T16:51:18.880Z,15.00
2017-10-13T16:53:45.316Z,12.10
2017-10-13T16:56:11.803Z,12.50
2017-10-13T16:58:38.255Z,14.73
2017-10-13T17:01:04.714Z,18.40
2017-10-13T17:03:31.021Z,13.10
2017-10-13T17:05:57.468Z,19.00
2017-10-13T17:08:23.803Z,10.30
2017-10-13T17:10:50.118Z,11.70
2017-10-13T17:13:16.489Z,10.07
2017-10-13T17:15:43.096Z,7.20
2017-10-13T17:18:09.587Z,10.07
2017-10-13T17:20:36.147Z,7.40
2017-10-13T17:23:02.575Z,7.47
2017-10-13T17:25:29.027Z,6.90
2017-10-13T17:27:55.414Z,10.63
2017-10-13T17:30:21.887Z,10.30
2017-10-13T17:32:48.373Z,9.30
2017-10-13T17:35:14.997Z,12.13
2017-10-13T17:37:41.515Z,10.47
2017-10-13T17:40:08.012Z,9.53
2017-10-13T17:42:34.558Z,11.40
2017-10-13T17:45:01.086Z,10.03
2017-10-13T17:47:27.759Z,9.33
2017-10-13T17:49:54.326Z,14.47
2017-10-13T17:52:20.864Z,9.50
2017-10-13T17:54:47.398Z,15.57
2017-10-13T17:57:14.062Z,11.00
2017-10-13T17:59:40.819Z,18.23
2017-10-13T18:02:07.232Z,12.50
2017-10-13T18:04:33.869Z,27.43
2017-10-13T18:07:00.909Z,21.10
2017-10-13T18:09:27.454Z,35.13
2017-10-13T18:11:53.977Z,10.30
2017-10-13T18:14:20.651Z,11.60
2017-10-13T18:16:47.215Z,10.87
2017-10-13T18:19:13.983Z,8.57
2017-10-13T18:21:40.663Z,8.33
2017-10-13T18:24:07.497Z,9.17
2017-10-13T18:26:34.255Z,26.97
2017-10-13T18:29:00.903Z,70.00
2017-10-13T18:31:27.792Z,87.73
2017-10-13T18:33:54.683Z,78.83
2017-10-13T18:36:21.572Z,139.73
2017-10-13T18:38:48.742Z,152.03
2017-10-13T18:41:15.489Z,90.40
2017-10-13T18:43:42.511Z,62.73
2017-10-13T18:46:09.679Z,34.13
2017-10-13T18:48:36.574Z,33.03
2017-10-13T18:51:03.226Z,25.97
2017-10-13T18:53:30.043Z,13.10
2017-10-13T18:55:56.873Z,14.27
2017-10-13T18:58:23.879Z,10.00
2017-10-13T19:00:51.043Z,11.00
2017-10-13T19:03:17.918Z,13.77
2017-10-13T19:05:45.249Z,11.67
2017-10-13T19:08:12.285Z,12.80
2017-10-13T19:10:39.234Z,8.00
2017-10-13T19:13:06.401Z,7.67
2017-10-13T19:15:33.237Z,8.40
2017-10-13T19:18:00.140Z,10.50
2017-10-13T19:20:27.140Z,21.07
2017-10-13T19:22:54.427Z,10.60
2017-10-13T19:25:21.201Z,7.90
2017-10-13T19:27:48.375Z,6.27
2017-10-13T19:30:15.398Z,8.03
2017-10-13T19:32:42.553Z,15.80
2017-10-13T19:35:09.241Z,8.50
2017-10-13T19:37:36.381Z,7.87
2017-10-13T19:40:03.486Z,8.37
2017-10-13T19:42:31.395Z,7.30
2017-10-13T19:44:58.240Z,7.00
2017-10-13T19:47:25.016Z,7.53
2017-10-13T19:49:51.961Z,6.03
2017-10-13T19:52:18.859Z,8.77
2017-10-13T19:54:45.641Z,9.97
2017-10-13T19:57:12.189Z,6.90
2017-10-13T19:59:38.840Z,6.60
2017-10-13T20:02:05.410Z,7.60
2017-10-13T20:04:31.954Z,8.60
2017-10-13T20:06:58.702Z,8.50
2017-10-13T20:09:25.221Z,7.23
2017-10-13T20:11:51.574Z,8.80
2017-10-13T20:14:17.993Z,7.77
2017-10-13T20:16:44.664Z,6.90
2017-10-13T20:19:11.292Z,7.10
2017-10-13T20:21:38.771Z,7.90
2017-10-13T20:24:05.109Z,8.77
2017-10-13T20:26:31.617Z,8.40
2017-10-13T20:28:57.973Z,7.50
2017-10-13T20:31:24.724Z,7.80
2017-10-13T20:33:51.118Z,7.00
2017-10-13T20:36:17.450Z,8.50
2017-10-13T20:38:43.843Z,7.40
2017-10-13T20:41:10.074Z,6.90
2017-10-13T20:43:36.581Z,7.73
2017-10-13T20:46:02.960Z,7.00
2017-10-13T20:48:29.279Z,7.70
2017-10-13T20:50:55.817Z,6.43
2017-10-13T20:53:22.125Z,6.00
2017-10-13T20:55:48.330Z,6.70
2017-10-13T20:58:14.584Z,5.83
2017-10-13T21:00:40.835Z,5.60
2017-10-13T21:03:07.072Z,5.40
2017-10-13T21:05:33.473Z,6.33
2017-10-13T21:07:59.691Z,5.87
2017-10-13T21:10:25.964Z,6.07
2017-10-13T21:12:52.190Z,5.60
2017-10-13T21:15:18.476Z,5.97
2017-10-13T21:17:44.672Z,6.23
2017-10-13T21:20:10.878Z,6.20
2017-10-13T21:22:37.299Z,6.37
2017-10-13T21:25:03.517Z,5.00
2017-10-13T21:27:29.750Z,4.63
2017-10-13T21:29:55.990Z,6.00
2017-10-13T21:32:22.224Z,5.30
2017-10-13T21:34:48.486Z,6.30
2017-10-13T21:37:14.709Z,6.03
2017-10-13T21:39:40.932Z,6.10
2017-10-13T21:42:07.135Z,7.37
2017-10-13T21:44:33.386Z,6.07
2017-10-13T21:46:59.583Z,6.00
2017-10-13T21:49:26.000Z,6.10
2017-10-13T21:51:52.198Z,5.00
2017-10-13T21:54:18.475Z,5.73
2017-10-13T21:56:44.685Z,7.50
2017-10-13T21:59:10.911Z,5.47
2017-10-13T22:01:37.121Z,5.30
2017-10-13T22:04:03.348Z,5.80
2017-10-13T22:06:29.555Z,5.20
2017-10-13T22:08:55.768Z,4.63
2017-10-13T22:11:21.972Z,5.50
2017-10-13T22:13:48.203Z,4.70
2017-10-13T22:16:14.429Z,5.20
2017-10-13T22:18:40.612Z,7.23
2017-10-13T22:21:06.818Z,4.17
2017-10-13T22:23:33.028Z,5.00
2017-10-13T22:25:59.264Z,5.30
2017-10-13T22:28:25.478Z,4.93
2017-10-13T22:30:51.920Z,7.63
2017-10-13T22:33:18.138Z,5.53
2017-10-13T22:35:44.361Z,10.47
2017-10-13T22:38:10.584Z,5.47
2017-10-13T22:40:36.888Z,5.97
2017-10-13T22:43:03.132Z,5.40
2017-10-13T22:45:29.354Z,4.77
2017-10-13T22:47:55.594Z,4.70
2017-10-13T22:50:21.811Z,4.63
2017-10-13T22:52:48.023Z,5.53
2017-10-13T22:55:14.255Z,6.13
2017-10-13T22:57:40.620Z,5.20
2017-10-13T23:00:06.885Z,4.10
2017-10-13T23:02:33.107Z,5.53
2017-10-13T23:04:59.336Z,4.53
2017-10-13T23:07:25.556Z,4.80
2017-10-13T23:09:51.757Z,5.50
2017-10-13T23:12:17.969Z,4.13
2017-10-13T23:14:44.200Z,4.67
2017-10-13T23:17:10.427Z,5.77
2017-10-13T23:19:36.631Z,6.20
2017-10-13T23:22:02.841Z,4.97
2017-10-13T23:24:29.043Z,5.80
2017-10-13T23:26:55.283Z,5.40
2017-10-13T23:29:21.529Z,5.30
2017-10-13T23:31:47.747Z,5.03
2017-10-13T23:34:13.963Z,5.10
2017-10-13T23:36:40.181Z,6.40
2017-10-13T23:39:06.406Z,6.70
2017-10-13T23:41:32.622Z,5.37
2017-10-13T23:43:58.825Z,5.40
2017-10-13T23:46:25.052Z,5.50
2017-10-13T23:48:51.268Z,5.30
2017-10-13T23:51:17.489Z,5.30
2017-10-13T23:53:43.711Z,4.40
2017-10-13T23:56:09.957Z,4.87
2017-10-13T23:58:36.199Z,4.50
